Aviation Digital Data Service (ADDS)

Output produced by METARs form (0050 UTC 25 July 2017)
found at http://aviationweather.gov/adds/metars/
 
METAR text: KSPB 242353Z AUTO 36016G20KT 10SM CLR 31/11 A2986 RMK AO2 SLP110 T03060106 10311 20244 58018
Conditions at: KSPB (SCAPPOOSE , OR, US) observed 2353 UTC 24 July 2017
Temperature: 30.6°C (87°F)
Dewpoint: 10.6°C (51°F) [RH = 29%]
Pressure (altimeter): 29.86 inches Hg (1011.3 mb)
[Sea-level pressure: 1011.0 mb]
Winds: from the N (360 degrees) at 18 MPH (16 knots; 8.3 m/s)
gusting to 23 MPH (20 knots; 10.4 m/s)
Visibility: 10 or more miles (16+ km)
Ceiling: at least 12,000 feet AGL
Clouds: sky clear below 12,000 feet AGL
Weather: automated observation with no human augmentation;
there may or may not be significant weather present at this time

METAR text: KSPB 242253Z AUTO 35013KT 10SM CLR 31/11 A2988 RMK AO2 SLP117 T03060106
Conditions at: KSPB (SCAPPOOSE , OR, US) observed 2253 UTC 24 July 2017
Temperature: 30.6°C (87°F)
Dewpoint: 10.6°C (51°F) [RH = 29%]
Pressure (altimeter): 29.88 inches Hg (1011.9 mb)
[Sea-level pressure: 1011.7 mb]
Winds: from the N (350 degrees) at 15 MPH (13 knots; 6.8 m/s)
Visibility: 10 or more miles (16+ km)
Ceiling: at least 12,000 feet AGL
Clouds: sky clear below 12,000 feet AGL
Weather: automated observation with no human augmentation;
there may or may not be significant weather present at this time